sensor_id;sensor_type;location;lat;lon;timestamp;temperature;humidity
4759;DHT22;2393;50.560;12.636;2022-08-01T00:01:29;18.50;99.90
4759;DHT22;2393;50.560;12.636;2022-08-01T00:03:58;18.60;99.90
4759;DHT22;2393;50.560;12.636;2022-08-01T00:06:26;18.60;99.90
4759;DHT22;2393;50.560;12.636;2022-08-01T00:08:54;18.60;99.90
4759;DHT22;2393;50.560;12.636;2022-08-01T00:11:22;18.60;99.90
4759;DHT22;2393;50.560;12.636;2022-08-01T00:13:50;18.70;99.90
4759;DHT22;2393;50.560;12.636;2022-08-01T00:16:19;18.60;99.90
4759;DHT22;2393;50.560;12.636;2022-08-01T00:18:50;18.60;99.90
4759;DHT22;2393;50.560;12.636;2022-08-01T00:21:18;18.70;99.90
4759;DHT22;2393;50.560;12.636;2022-08-01T00:23:46;18.80;99.90
4759;DHT22;2393;50.560;12.636;2022-08-01T00:26:15;18.80;99.90
4759;DHT22;2393;50.560;12.636;2022-08-01T00:28:43;18.80;99.90
4759;DHT22;2393;50.560;12.636;2022-08-01T00:31:11;18.80;99.90
4759;DHT22;2393;50.560;12.636;2022-08-01T00:33:39;18.90;99.90
4759;DHT22;2393;50.560;12.636;2022-08-01T00:36:08;18.90;99.90
4759;DHT22;2393;50.560;12.636;2022-08-01T00:38:36;18.90;99.90
4759;DHT22;2393;50.560;12.636;2022-08-01T00:41:04;18.90;99.90
4759;DHT22;2393;50.560;12.636;2022-08-01T00:43:32;18.90;99.90
4759;DHT22;2393;50.560;12.636;2022-08-01T00:46:00;19.00;99.90
4759;DHT22;2393;50.560;12.636;2022-08-01T00:48:28;19.00;99.90
4759;DHT22;2393;50.560;12.636;2022-08-01T00:50:56;19.00;99.90
4759;DHT22;2393;50.560;12.636;2022-08-01T00:53:25;19.00;99.90
4759;DHT22;2393;50.560;12.636;2022-08-01T00:56:13;19.00;99.90
4759;DHT22;2393;50.560;12.636;2022-08-01T00:58:41;19.10;99.90
4759;DHT22;2393;50.560;12.636;2022-08-01T01:01:11;19.10;99.90
4759;DHT22;2393;50.560;12.636;2022-08-01T01:03:39;19.10;99.90
4759;DHT22;2393;50.560;12.636;2022-08-01T01:06:34;19.00;99.90
4759;DHT22;2393;50.560;12.636;2022-08-01T01:09:17;19.10;99.90
4759;DHT22;2393;50.560;12.636;2022-08-01T01:11:54;19.10;99.90
4759;DHT22;2393;50.560;12.636;2022-08-01T01:14:31;19.10;99.90
4759;DHT22;2393;50.560;12.636;2022-08-01T01:17:03;19.10;99.90
4759;DHT22;2393;50.560;12.636;2022-08-01T01:19:37;19.10;99.90
4759;DHT22;2393;50.560;12.636;2022-08-01T01:22:36;19.10;99.90
4759;DHT22;2393;50.560;12.636;2022-08-01T01:25:26;19.20;99.90
4759;DHT22;2393;50.560;12.636;2022-08-01T01:28:04;19.20;99.90
4759;DHT22;2393;50.560;12.636;2022-08-01T01:30:36;19.20;99.90
4759;DHT22;2393;50.560;12.636;2022-08-01T01:33:06;19.20;99.90
4759;DHT22;2393;50.560;12.636;2022-08-01T01:35:41;19.30;99.90
4759;DHT22;2393;50.560;12.636;2022-08-01T01:38:14;19.30;99.90
4759;DHT22;2393;50.560;12.636;2022-08-01T01:40:43;19.30;99.90
4759;DHT22;2393;50.560;12.636;2022-08-01T01:43:14;19.30;99.90
4759;DHT22;2393;50.560;12.636;2022-08-01T01:45:44;19.40;99.90
4759;DHT22;2393;50.560;12.636;2022-08-01T01:48:14;19.40;99.90
4759;DHT22;2393;50.560;12.636;2022-08-01T01:50:45;19.40;99.90
4759;DHT22;2393;50.560;12.636;2022-08-01T01:53:16;19.40;99.90
4759;DHT22;2393;50.560;12.636;2022-08-01T01:55:48;19.40;99.90
4759;DHT22;2393;50.560;12.636;2022-08-01T01:58:18;19.40;99.90
4759;DHT22;2393;50.560;12.636;2022-08-01T02:00:50;19.40;99.90
4759;DHT22;2393;50.560;12.636;2022-08-01T02:03:19;19.50;99.90
4759;DHT22;2393;50.560;12.636;2022-08-01T02:05:49;19.50;99.90
4759;DHT22;2393;50.560;12.636;2022-08-01T02:08:18;19.50;99.90
4759;DHT22;2393;50.560;12.636;2022-08-01T02:10:48;19.50;99.90
4759;DHT22;2393;50.560;12.636;2022-08-01T02:13:33;19.50;99.90
4759;DHT22;2393;50.560;12.636;2022-08-01T02:16:04;19.50;99.90
4759;DHT22;2393;50.560;12.636;2022-08-01T02:18:33;19.50;99.90
4759;DHT22;2393;50.560;12.636;2022-08-01T02:21:13;19.50;99.90
4759;DHT22;2393;50.560;12.636;2022-08-01T02:23:43;19.50;99.90
4759;DHT22;2393;50.560;12.636;2022-08-01T02:26:14;19.50;99.90
4759;DHT22;2393;50.560;12.636;2022-08-01T02:28:49;19.50;99.90
4759;DHT22;2393;50.560;12.636;2022-08-01T02:31:21;19.50;99.90
4759;DHT22;2393;50.560;12.636;2022-08-01T02:33:55;19.60;99.90
4759;DHT22;2393;50.560;12.636;2022-08-01T02:36:26;19.60;99.90
4759;DHT22;2393;50.560;12.636;2022-08-01T02:39:01;19.60;99.90
4759;DHT22;2393;50.560;12.636;2022-08-01T02:41:30;19.50;99.90
4759;DHT22;2393;50.560;12.636;2022-08-01T02:44:01;19.50;99.90
4759;DHT22;2393;50.560;12.636;2022-08-01T02:46:36;19.60;99.90
4759;DHT22;2393;50.560;12.636;2022-08-01T02:49:07;19.60;99.90
4759;DHT22;2393;50.560;12.636;2022-08-01T02:51:37;19.60;99.90
4759;DHT22;2393;50.560;12.636;2022-08-01T02:54:08;19.60;99.90
4759;DHT22;2393;50.560;12.636;2022-08-01T02:56:38;19.50;99.90
4759;DHT22;2393;50.560;12.636;2022-08-01T02:59:10;19.60;99.90
4759;DHT22;2393;50.560;12.636;2022-08-01T03:01:42;19.50;99.90
4759;DHT22;2393;50.560;12.636;2022-08-01T03:04:14;19.50;99.90
4759;DHT22;2393;50.560;12.636;2022-08-01T03:06:45;19.40;99.90
4759;DHT22;2393;50.560;12.636;2022-08-01T03:09:14;19.50;99.90
4759;DHT22;2393;50.560;12.636;2022-08-01T03:11:45;19.40;99.90
4759;DHT22;2393;50.560;12.636;2022-08-01T03:14:14;19.50;99.90
4759;DHT22;2393;50.560;12.636;2022-08-01T03:16:45;19.50;99.90
4759;DHT22;2393;50.560;12.636;2022-08-01T03:19:14;19.40;99.90
4759;DHT22;2393;50.560;12.636;2022-08-01T03:21:43;19.40;99.90
4759;DHT22;2393;50.560;12.636;2022-08-01T03:24:12;19.40;99.90
4759;DHT22;2393;50.560;12.636;2022-08-01T03:26:41;19.40;99.90
4759;DHT22;2393;50.560;12.636;2022-08-01T03:29:14;19.40;99.90
4759;DHT22;2393;50.560;12.636;2022-08-01T03:31:45;19.40;99.90
4759;DHT22;2393;50.560;12.636;2022-08-01T03:34:13;19.30;99.90
4759;DHT22;2393;50.560;12.636;2022-08-01T03:36:46;19.30;99.90
4759;DHT22;2393;50.560;12.636;2022-08-01T03:39:17;19.20;99.90
4759;DHT22;2393;50.560;12.636;2022-08-01T03:41:50;19.20;99.90
4759;DHT22;2393;50.560;12.636;2022-08-01T03:44:25;19.20;99.90
4759;DHT22;2393;50.560;12.636;2022-08-01T03:46:59;19.10;99.90
4759;DHT22;2393;50.560;12.636;2022-08-01T03:49:30;19.10;99.90
4759;DHT22;2393;50.560;12.636;2022-08-01T03:52:01;19.10;99.90
4759;DHT22;2393;50.560;12.636;2022-08-01T03:54:31;19.10;99.90
4759;DHT22;2393;50.560;12.636;2022-08-01T03:57:02;19.10;99.90
4759;DHT22;2393;50.560;12.636;2022-08-01T03:59:31;19.10;99.90
4759;DHT22;2393;50.560;12.636;2022-08-01T04:02:02;19.10;99.90
4759;DHT22;2393;50.560;12.636;2022-08-01T04:04:31;19.10;99.90
4759;DHT22;2393;50.560;12.636;2022-08-01T04:06:59;19.00;99.90
4759;DHT22;2393;50.560;12.636;2022-08-01T04:09:31;19.00;99.90
4759;DHT22;2393;50.560;12.636;2022-08-01T04:11:59;19.00;99.90
4759;DHT22;2393;50.560;12.636;2022-08-01T04:14:37;19.00;99.90
4759;DHT22;2393;50.560;12.636;2022-08-01T04:17:06;19.00;99.90
4759;DHT22;2393;50.560;12.636;2022-08-01T04:19:35;19.10;99.90
4759;DHT22;2393;50.560;12.636;2022-08-01T04:22:03;19.10;99.90
4759;DHT22;2393;50.560;12.636;2022-08-01T04:24:32;19.10;99.90
4759;DHT22;2393;50.560;12.636;2022-08-01T04:27:06;19.10;99.90
4759;DHT22;2393;50.560;12.636;2022-08-01T04:29:37;19.10;99.90
4759;DHT22;2393;50.560;12.636;2022-08-01T04:32:09;19.10;99.90
4759;DHT22;2393;50.560;12.636;2022-08-01T04:34:39;19.00;99.90
4759;DHT22;2393;50.560;12.636;2022-08-01T04:37:10;19.00;99.90
4759;DHT22;2393;50.560;12.636;2022-08-01T04:39:41;19.00;99.90
4759;DHT22;2393;50.560;12.636;2022-08-01T04:42:17;19.00;99.90
4759;DHT22;2393;50.560;12.636;2022-08-01T04:44:59;19.10;99.90
4759;DHT22;2393;50.560;12.636;2022-08-01T04:47:29;19.10;99.90
4759;DHT22;2393;50.560;12.636;2022-08-01T04:50:00;19.00;99.90
4759;DHT22;2393;50.560;12.636;2022-08-01T04:52:34;19.10;99.90
4759;DHT22;2393;50.560;12.636;2022-08-01T04:55:04;19.10;99.90
4759;DHT22;2393;50.560;12.636;2022-08-01T04:57:34;19.10;99.90
4759;DHT22;2393;50.560;12.636;2022-08-01T05:00:05;19.20;99.90
4759;DHT22;2393;50.560;12.636;2022-08-01T05:02:34;19.20;99.90
4759;DHT22;2393;50.560;12.636;2022-08-01T05:05:03;19.20;99.90
4759;DHT22;2393;50.560;12.636;2022-08-01T05:07:33;19.20;99.90
4759;DHT22;2393;50.560;12.636;2022-08-01T05:10:11;19.10;99.90
4759;DHT22;2393;50.560;12.636;2022-08-01T05:12:39;19.20;99.90
4759;DHT22;2393;50.560;12.636;2022-08-01T05:15:08;19.10;99.90
4759;DHT22;2393;50.560;12.636;2022-08-01T05:17:42;19.10;99.90
4759;DHT22;2393;50.560;12.636;2022-08-01T05:20:11;19.20;99.90
4759;DHT22;2393;50.560;12.636;2022-08-01T05:22:39;19.20;99.90
4759;DHT22;2393;50.560;12.636;2022-08-01T05:25:07;19.20;99.90
4759;DHT22;2393;50.560;12.636;2022-08-01T05:27:37;19.20;99.90
4759;DHT22;2393;50.560;12.636;2022-08-01T05:30:07;19.20;99.90
4759;DHT22;2393;50.560;12.636;2022-08-01T05:32:36;19.20;99.90
4759;DHT22;2393;50.560;12.636;2022-08-01T05:35:07;19.10;99.90
4759;DHT22;2393;50.560;12.636;2022-08-01T05:37:36;19.00;99.90
4759;DHT22;2393;50.560;12.636;2022-08-01T05:40:05;18.80;99.90
4759;DHT22;2393;50.560;12.636;2022-08-01T05:42:33;18.70;99.90
4759;DHT22;2393;50.560;12.636;2022-08-01T05:45:03;18.70;99.90
4759;DHT22;2393;50.560;12.636;2022-08-01T05:47:31;18.60;99.90
4759;DHT22;2393;50.560;12.636;2022-08-01T05:49:59;18.60;99.90
4759;DHT22;2393;50.560;12.636;2022-08-01T05:52:28;18.60;99.90
4759;DHT22;2393;50.560;12.636;2022-08-01T05:54:58;18.60;99.90
4759;DHT22;2393;50.560;12.636;2022-08-01T05:57:26;18.50;99.90
4759;DHT22;2393;50.560;12.636;2022-08-01T05:59:55;18.50;99.90
4759;DHT22;2393;50.560;12.636;2022-08-01T06:02:23;18.50;99.90
4759;DHT22;2393;50.560;12.636;2022-08-01T06:04:51;18.50;99.90
4759;DHT22;2393;50.560;12.636;2022-08-01T06:07:19;18.50;99.90
4759;DHT22;2393;50.560;12.636;2022-08-01T06:09:49;18.50;99.90
4759;DHT22;2393;50.560;12.636;2022-08-01T06:12:17;18.50;99.90
4759;DHT22;2393;50.560;12.636;2022-08-01T06:15:06;18.50;99.90
4759;DHT22;2393;50.560;12.636;2022-08-01T06:17:42;18.50;99.90
4759;DHT22;2393;50.560;12.636;2022-08-01T06:20:16;18.50;99.90
4759;DHT22;2393;50.560;12.636;2022-08-01T06:22:44;18.50;99.90
4759;DHT22;2393;50.560;12.636;2022-08-01T06:25:20;18.50;99.90
4759;DHT22;2393;50.560;12.636;2022-08-01T06:27:48;18.50;99.90
4759;DHT22;2393;50.560;12.636;2022-08-01T06:30:16;18.50;99.90
4759;DHT22;2393;50.560;12.636;2022-08-01T06:32:45;18.60;99.90
4759;DHT22;2393;50.560;12.636;2022-08-01T06:35:14;18.60;99.90
4759;DHT22;2393;50.560;12.636;2022-08-01T06:37:42;18.60;99.90
4759;DHT22;2393;50.560;12.636;2022-08-01T06:40:12;18.60;99.90
4759;DHT22;2393;50.560;12.636;2022-08-01T06:42:45;18.70;99.90
4759;DHT22;2393;50.560;12.636;2022-08-01T06:45:22;18.70;99.90
4759;DHT22;2393;50.560;12.636;2022-08-01T06:53:00;18.80;99.90
4759;DHT22;2393;50.560;12.636;2022-08-01T06:55:41;18.80;99.90
4759;DHT22;2393;50.560;12.636;2022-08-01T06:58:11;18.90;99.90
4759;DHT22;2393;50.560;12.636;2022-08-01T07:00:40;19.10;99.90
4759;DHT22;2393;50.560;12.636;2022-08-01T07:03:09;19.10;99.90
4759;DHT22;2393;50.560;12.636;2022-08-01T07:05:37;19.30;99.90
4759;DHT22;2393;50.560;12.636;2022-08-01T07:08:05;19.40;99.90
4759;DHT22;2393;50.560;12.636;2022-08-01T07:10:33;19.50;99.90
4759;DHT22;2393;50.560;12.636;2022-08-01T07:13:01;19.60;99.90
4759;DHT22;2393;50.560;12.636;2022-08-01T07:15:30;19.60;99.90
4759;DHT22;2393;50.560;12.636;2022-08-01T07:17:58;19.70;99.90
4759;DHT22;2393;50.560;12.636;2022-08-01T07:20:30;19.70;99.90
4759;DHT22;2393;50.560;12.636;2022-08-01T07:23:07;19.80;99.90
4759;DHT22;2393;50.560;12.636;2022-08-01T07:25:38;19.80;99.90
4759;DHT22;2393;50.560;12.636;2022-08-01T07:28:16;19.70;99.90
4759;DHT22;2393;50.560;12.636;2022-08-01T07:30:45;19.70;99.90
4759;DHT22;2393;50.560;12.636;2022-08-01T07:33:13;19.70;99.90
4759;DHT22;2393;50.560;12.636;2022-08-01T07:35:42;19.60;99.90
4759;DHT22;2393;50.560;12.636;2022-08-01T07:38:10;19.60;99.90
4759;DHT22;2393;50.560;12.636;2022-08-01T07:40:38;19.60;99.90
4759;DHT22;2393;50.560;12.636;2022-08-01T07:43:06;19.60;99.90
4759;DHT22;2393;50.560;12.636;2022-08-01T07:45:34;19.60;99.90
4759;DHT22;2393;50.560;12.636;2022-08-01T07:48:05;19.60;99.90
4759;DHT22;2393;50.560;12.636;2022-08-01T07:50:34;19.70;99.90
4759;DHT22;2393;50.560;12.636;2022-08-01T07:53:02;19.70;99.90
4759;DHT22;2393;50.560;12.636;2022-08-01T07:55:31;19.70;99.90
4759;DHT22;2393;50.560;12.636;2022-08-01T07:57:59;19.80;99.90
4759;DHT22;2393;50.560;12.636;2022-08-01T08:00:27;19.90;99.90
4759;DHT22;2393;50.560;12.636;2022-08-01T08:02:55;19.90;99.90
4759;DHT22;2393;50.560;12.636;2022-08-01T08:05:27;20.00;99.90
4759;DHT22;2393;50.560;12.636;2022-08-01T08:08:14;20.10;99.90
4759;DHT22;2393;50.560;12.636;2022-08-01T08:10:47;20.20;99.90
4759;DHT22;2393;50.560;12.636;2022-08-01T08:13:16;20.30;99.90
4759;DHT22;2393;50.560;12.636;2022-08-01T08:15:44;20.40;99.90
4759;DHT22;2393;50.560;12.636;2022-08-01T08:18:14;20.60;99.90
4759;DHT22;2393;50.560;12.636;2022-08-01T08:20:43;20.80;99.90
4759;DHT22;2393;50.560;12.636;2022-08-01T08:23:12;20.90;99.90
4759;DHT22;2393;50.560;12.636;2022-08-01T08:26:09;21.00;99.90
4759;DHT22;2393;50.560;12.636;2022-08-01T08:28:37;20.90;99.90
4759;DHT22;2393;50.560;12.636;2022-08-01T08:31:06;20.90;99.90
4759;DHT22;2393;50.560;12.636;2022-08-01T08:33:54;20.90;99.90
4759;DHT22;2393;50.560;12.636;2022-08-01T08:36:24;20.90;99.90
4759;DHT22;2393;50.560;12.636;2022-08-01T08:38:57;20.90;99.90
4759;DHT22;2393;50.560;12.636;2022-08-01T08:41:28;21.00;99.90
4759;DHT22;2393;50.560;12.636;2022-08-01T08:44:05;21.20;99.90
4759;DHT22;2393;50.560;12.636;2022-08-01T08:46:41;21.40;99.90
4759;DHT22;2393;50.560;12.636;2022-08-01T08:49:10;21.50;99.90
4759;DHT22;2393;50.560;12.636;2022-08-01T08:51:41;21.60;99.90
4759;DHT22;2393;50.560;12.636;2022-08-01T08:54:11;21.80;99.90
4759;DHT22;2393;50.560;12.636;2022-08-01T08:56:40;21.90;99.90
4759;DHT22;2393;50.560;12.636;2022-08-01T08:59:12;22.10;99.90
4759;DHT22;2393;50.560;12.636;2022-08-01T09:01:41;22.10;99.90
4759;DHT22;2393;50.560;12.636;2022-08-01T09:04:10;22.00;99.90
4759;DHT22;2393;50.560;12.636;2022-08-01T09:06:40;21.90;99.90
4759;DHT22;2393;50.560;12.636;2022-08-01T09:09:09;21.90;99.90
4759;DHT22;2393;50.560;12.636;2022-08-01T09:11:38;21.90;99.90
4759;DHT22;2393;50.560;12.636;2022-08-01T09:14:09;21.80;99.90
4759;DHT22;2393;50.560;12.636;2022-08-01T09:16:40;21.80;99.90
4759;DHT22;2393;50.560;12.636;2022-08-01T09:19:15;21.90;99.90
4759;DHT22;2393;50.560;12.636;2022-08-01T09:22:06;22.10;99.90
4759;DHT22;2393;50.560;12.636;2022-08-01T09:24:36;22.20;99.90
4759;DHT22;2393;50.560;12.636;2022-08-01T09:27:16;22.20;99.90
4759;DHT22;2393;50.560;12.636;2022-08-01T09:29:48;22.30;99.90
4759;DHT22;2393;50.560;12.636;2022-08-01T09:32:28;22.30;99.90
4759;DHT22;2393;50.560;12.636;2022-08-01T09:35:24;22.30;99.90
4759;DHT22;2393;50.560;12.636;2022-08-01T09:38:18;22.20;99.90
4759;DHT22;2393;50.560;12.636;2022-08-01T09:40:50;22.10;99.90
4759;DHT22;2393;50.560;12.636;2022-08-01T09:43:20;22.00;99.90
4759;DHT22;2393;50.560;12.636;2022-08-01T09:45:48;21.80;99.90
4759;DHT22;2393;50.560;12.636;2022-08-01T09:48:19;21.70;99.90
4759;DHT22;2393;50.560;12.636;2022-08-01T09:51:26;21.50;99.90
4759;DHT22;2393;50.560;12.636;2022-08-01T09:58:57;21.00;99.90
4759;DHT22;2393;50.560;12.636;2022-08-01T10:01:48;20.80;99.90
4759;DHT22;2393;50.560;12.636;2022-08-01T10:04:20;20.60;99.90
4759;DHT22;2393;50.560;12.636;2022-08-01T10:06:50;20.60;99.90
4759;DHT22;2393;50.560;12.636;2022-08-01T10:09:27;20.70;99.90
4759;DHT22;2393;50.560;12.636;2022-08-01T10:12:07;20.90;99.90
4759;DHT22;2393;50.560;12.636;2022-08-01T10:14:48;21.10;99.90
4759;DHT22;2393;50.560;12.636;2022-08-01T10:17:23;21.20;99.90
4759;DHT22;2393;50.560;12.636;2022-08-01T10:20:13;21.30;99.90
4759;DHT22;2393;50.560;12.636;2022-08-01T10:23:00;21.40;99.90
4759;DHT22;2393;50.560;12.636;2022-08-01T10:25:34;21.40;99.90
4759;DHT22;2393;50.560;12.636;2022-08-01T10:28:14;21.50;99.90
4759;DHT22;2393;50.560;12.636;2022-08-01T10:30:45;21.50;99.90
4759;DHT22;2393;50.560;12.636;2022-08-01T10:33:17;21.50;99.90
4759;DHT22;2393;50.560;12.636;2022-08-01T10:36:06;21.50;99.90
4759;DHT22;2393;50.560;12.636;2022-08-01T10:38:35;21.40;99.90
4759;DHT22;2393;50.560;12.636;2022-08-01T10:41:05;21.40;99.90
4759;DHT22;2393;50.560;12.636;2022-08-01T10:43:35;21.50;99.90
4759;DHT22;2393;50.560;12.636;2022-08-01T10:46:04;21.50;99.90
4759;DHT22;2393;50.560;12.636;2022-08-01T10:48:42;21.50;99.90
4759;DHT22;2393;50.560;12.636;2022-08-01T10:51:11;21.60;99.90
4759;DHT22;2393;50.560;12.636;2022-08-01T10:53:50;21.70;99.90
4759;DHT22;2393;50.560;12.636;2022-08-01T10:56:21;21.80;99.90
4759;DHT22;2393;50.560;12.636;2022-08-01T10:59:01;22.00;99.90
4759;DHT22;2393;50.560;12.636;2022-08-01T11:01:33;22.20;99.90
4759;DHT22;2393;50.560;12.636;2022-08-01T11:04:09;22.40;99.90
4759;DHT22;2393;50.560;12.636;2022-08-01T11:06:54;22.60;99.90
4759;DHT22;2393;50.560;12.636;2022-08-01T11:09:38;22.90;99.90
4759;DHT22;2393;50.560;12.636;2022-08-01T11:12:09;23.20;99.90
4759;DHT22;2393;50.560;12.636;2022-08-01T11:15:18;23.30;99.90
4759;DHT22;2393;50.560;12.636;2022-08-01T11:17:58;23.50;99.90
4759;DHT22;2393;50.560;12.636;2022-08-01T11:20:28;23.70;99.90
4759;DHT22;2393;50.560;12.636;2022-08-01T11:23:26;23.80;99.90
4759;DHT22;2393;50.560;12.636;2022-08-01T11:26:20;23.90;99.90
4759;DHT22;2393;50.560;12.636;2022-08-01T11:29:16;24.00;99.90
4759;DHT22;2393;50.560;12.636;2022-08-01T11:31:48;24.30;99.90
4759;DHT22;2393;50.560;12.636;2022-08-01T11:34:18;24.60;99.90
4759;DHT22;2393;50.560;12.636;2022-08-01T11:36:48;24.80;99.90
4759;DHT22;2393;50.560;12.636;2022-08-01T11:39:25;24.80;99.90
4759;DHT22;2393;50.560;12.636;2022-08-01T11:41:55;24.80;99.90
4759;DHT22;2393;50.560;12.636;2022-08-01T11:44:48;24.70;99.90
4759;DHT22;2393;50.560;12.636;2022-08-01T11:47:17;24.70;99.90
4759;DHT22;2393;50.560;12.636;2022-08-01T11:49:49;24.80;99.90
4759;DHT22;2393;50.560;12.636;2022-08-01T11:52:27;24.90;99.90
4759;DHT22;2393;50.560;12.636;2022-08-01T11:54:57;25.20;99.90
4759;DHT22;2393;50.560;12.636;2022-08-01T11:57:26;25.40;99.90
4759;DHT22;2393;50.560;12.636;2022-08-01T12:00:03;25.50;99.90
4759;DHT22;2393;50.560;12.636;2022-08-01T12:02:40;25.50;99.90
4759;DHT22;2393;50.560;12.636;2022-08-01T12:05:13;25.70;99.90
4759;DHT22;2393;50.560;12.636;2022-08-01T12:07:44;26.00;99.90
4759;DHT22;2393;50.560;12.636;2022-08-01T12:10:14;26.40;99.90
4759;DHT22;2393;50.560;12.636;2022-08-01T12:12:44;26.50;99.90
4759;DHT22;2393;50.560;12.636;2022-08-01T12:15:12;26.30;99.90
4759;DHT22;2393;50.560;12.636;2022-08-01T12:17:42;26.20;99.90
4759;DHT22;2393;50.560;12.636;2022-08-01T12:20:27;26.30;99.90
4759;DHT22;2393;50.560;12.636;2022-08-01T12:22:58;26.40;99.90
4759;DHT22;2393;50.560;12.636;2022-08-01T12:25:27;26.60;99.90
4759;DHT22;2393;50.560;12.636;2022-08-01T12:27:59;26.80;99.90
4759;DHT22;2393;50.560;12.636;2022-08-01T12:30:27;26.90;99.90
4759;DHT22;2393;50.560;12.636;2022-08-01T12:32:57;26.70;99.90
4759;DHT22;2393;50.560;12.636;2022-08-01T12:35:28;26.60;99.90
4759;DHT22;2393;50.560;12.636;2022-08-01T12:37:58;26.50;99.90
4759;DHT22;2393;50.560;12.636;2022-08-01T12:40:29;26.50;99.90
4759;DHT22;2393;50.560;12.636;2022-08-01T12:42:59;26.40;99.90
4759;DHT22;2393;50.560;12.636;2022-08-01T12:45:31;26.30;99.90
4759;DHT22;2393;50.560;12.636;2022-08-01T12:48:01;26.10;99.90
4759;DHT22;2393;50.560;12.636;2022-08-01T12:50:31;26.00;99.90
4759;DHT22;2393;50.560;12.636;2022-08-01T12:53:00;25.70;99.90
4759;DHT22;2393;50.560;12.636;2022-08-01T12:55:32;25.50;99.90
4759;DHT22;2393;50.560;12.636;2022-08-01T12:58:23;25.40;99.90
4759;DHT22;2393;50.560;12.636;2022-08-01T13:01:02;25.20;99.90
4759;DHT22;2393;50.560;12.636;2022-08-01T13:03:31;25.00;99.90
4759;DHT22;2393;50.560;12.636;2022-08-01T13:06:03;24.90;99.90
4759;DHT22;2393;50.560;12.636;2022-08-01T13:08:37;24.70;99.90
4759;DHT22;2393;50.560;12.636;2022-08-01T13:11:07;24.60;99.90
4759;DHT22;2393;50.560;12.636;2022-08-01T13:13:38;24.50;99.90
4759;DHT22;2393;50.560;12.636;2022-08-01T13:16:08;24.30;99.90
4759;DHT22;2393;50.560;12.636;2022-08-01T13:18:48;24.20;99.90
4759;DHT22;2393;50.560;12.636;2022-08-01T13:21:19;24.10;99.90
4759;DHT22;2393;50.560;12.636;2022-08-01T13:24:02;24.10;99.90
4759;DHT22;2393;50.560;12.636;2022-08-01T13:26:43;24.00;99.90
4759;DHT22;2393;50.560;12.636;2022-08-01T13:29:13;24.00;99.90
4759;DHT22;2393;50.560;12.636;2022-08-01T13:31:41;24.00;99.90
4759;DHT22;2393;50.560;12.636;2022-08-01T13:34:10;23.90;99.90
4759;DHT22;2393;50.560;12.636;2022-08-01T13:36:40;23.90;99.90
4759;DHT22;2393;50.560;12.636;2022-08-01T13:39:15;23.90;99.90
4759;DHT22;2393;50.560;12.636;2022-08-01T13:42:00;23.80;99.90
4759;DHT22;2393;50.560;12.636;2022-08-01T13:44:30;23.70;99.90
4759;DHT22;2393;50.560;12.636;2022-08-01T13:46:57;23.60;99.90
4759;DHT22;2393;50.560;12.636;2022-08-01T13:49:26;23.60;99.90
4759;DHT22;2393;50.560;12.636;2022-08-01T13:52:05;23.60;99.90
4759;DHT22;2393;50.560;12.636;2022-08-01T13:54:34;23.60;99.90
4759;DHT22;2393;50.560;12.636;2022-08-01T13:57:03;23.70;99.90
4759;DHT22;2393;50.560;12.636;2022-08-01T13:59:31;23.70;99.90
4759;DHT22;2393;50.560;12.636;2022-08-01T14:01:59;23.70;99.90
4759;DHT22;2393;50.560;12.636;2022-08-01T14:04:27;23.70;99.90
4759;DHT22;2393;50.560;12.636;2022-08-01T14:06:55;23.70;99.90
4759;DHT22;2393;50.560;12.636;2022-08-01T14:09:25;23.80;99.90
4759;DHT22;2393;50.560;12.636;2022-08-01T14:11:58;23.90;99.90
4759;DHT22;2393;50.560;12.636;2022-08-01T14:14:26;24.00;99.90
4759;DHT22;2393;50.560;12.636;2022-08-01T14:16:54;24.30;99.90
4759;DHT22;2393;50.560;12.636;2022-08-01T14:19:22;24.50;99.90
4759;DHT22;2393;50.560;12.636;2022-08-01T14:22:05;24.80;99.90
4759;DHT22;2393;50.560;12.636;2022-08-01T14:24:35;25.10;99.90
4759;DHT22;2393;50.560;12.636;2022-08-01T14:27:04;25.40;99.90
4759;DHT22;2393;50.560;12.636;2022-08-01T14:29:32;25.90;99.90
4759;DHT22;2393;50.560;12.636;2022-08-01T14:32:20;26.20;99.90
4759;DHT22;2393;50.560;12.636;2022-08-01T14:34:54;26.50;99.90
4759;DHT22;2393;50.560;12.636;2022-08-01T14:37:23;26.60;99.90
4759;DHT22;2393;50.560;12.636;2022-08-01T14:39:59;26.80;99.90
4759;DHT22;2393;50.560;12.636;2022-08-01T14:42:33;26.90;99.90
4759;DHT22;2393;50.560;12.636;2022-08-01T14:45:01;27.00;99.90
4759;DHT22;2393;50.560;12.636;2022-08-01T14:47:30;27.10;99.90
4759;DHT22;2393;50.560;12.636;2022-08-01T14:49:58;27.10;99.90
4759;DHT22;2393;50.560;12.636;2022-08-01T14:52:26;27.10;99.90
4759;DHT22;2393;50.560;12.636;2022-08-01T14:54:54;27.00;99.90
4759;DHT22;2393;50.560;12.636;2022-08-01T14:57:23;26.90;99.90
4759;DHT22;2393;50.560;12.636;2022-08-01T14:59:51;27.00;99.90
4759;DHT22;2393;50.560;12.636;2022-08-01T15:02:19;26.90;99.90
4759;DHT22;2393;50.560;12.636;2022-08-01T15:04:47;26.80;99.90
4759;DHT22;2393;50.560;12.636;2022-08-01T15:07:17;26.70;99.90
4759;DHT22;2393;50.560;12.636;2022-08-01T15:09:45;26.60;99.90
4759;DHT22;2393;50.560;12.636;2022-08-01T15:12:13;26.40;99.90
4759;DHT22;2393;50.560;12.636;2022-08-01T15:14:42;26.30;99.90
4759;DHT22;2393;50.560;12.636;2022-08-01T15:17:18;26.20;99.90
4759;DHT22;2393;50.560;12.636;2022-08-01T15:19:49;26.10;99.90
4759;DHT22;2393;50.560;12.636;2022-08-01T15:22:17;26.00;99.90
4759;DHT22;2393;50.560;12.636;2022-08-01T15:24:45;25.80;99.90
4759;DHT22;2393;50.560;12.636;2022-08-01T15:27:13;25.80;99.90
4759;DHT22;2393;50.560;12.636;2022-08-01T15:29:43;25.70;99.90
4759;DHT22;2393;50.560;12.636;2022-08-01T15:32:11;25.60;99.90
4759;DHT22;2393;50.560;12.636;2022-08-01T15:34:40;25.40;99.90
4759;DHT22;2393;50.560;12.636;2022-08-01T15:37:09;25.30;99.90
4759;DHT22;2393;50.560;12.636;2022-08-01T15:39:37;25.20;99.90
4759;DHT22;2393;50.560;12.636;2022-08-01T15:42:08;25.10;99.90
4759;DHT22;2393;50.560;12.636;2022-08-01T15:44:36;25.10;99.90
4759;DHT22;2393;50.560;12.636;2022-08-01T15:47:06;25.10;99.90
4759;DHT22;2393;50.560;12.636;2022-08-01T15:49:35;25.10;99.90
4759;DHT22;2393;50.560;12.636;2022-08-01T15:52:04;25.10;99.90
4759;DHT22;2393;50.560;12.636;2022-08-01T15:54:47;25.20;99.90
4759;DHT22;2393;50.560;12.636;2022-08-01T15:57:15;25.20;99.90
4759;DHT22;2393;50.560;12.636;2022-08-01T15:59:43;25.10;99.90
4759;DHT22;2393;50.560;12.636;2022-08-01T16:02:12;25.00;99.90
4759;DHT22;2393;50.560;12.636;2022-08-01T16:04:41;25.00;99.90
4759;DHT22;2393;50.560;12.636;2022-08-01T16:07:10;24.90;99.90
4759;DHT22;2393;50.560;12.636;2022-08-01T16:09:38;24.90;99.90
4759;DHT22;2393;50.560;12.636;2022-08-01T16:12:07;25.00;99.90
4759;DHT22;2393;50.560;12.636;2022-08-01T16:14:36;25.00;99.90
4759;DHT22;2393;50.560;12.636;2022-08-01T16:17:04;25.00;99.90
4759;DHT22;2393;50.560;12.636;2022-08-01T16:19:33;25.00;99.90
4759;DHT22;2393;50.560;12.636;2022-08-01T16:22:01;25.10;99.90
4759;DHT22;2393;50.560;12.636;2022-08-01T16:24:30;25.10;99.90
4759;DHT22;2393;50.560;12.636;2022-08-01T16:26:58;25.10;99.90